Preview of NWS' New Version of Forecast
This preview is not operational and should not be used for support decisions.

Terminal Aerodrome Forecast (TAF)

Issued by National Weather Service (NWS)

                            
000
FTAK31 PAFC 171720
TAFADL
TAF
PADL 171720Z 1718/1818 33004KT P6SM SCT030
     FM171900 34011G18KT P6SM FEW200
     FM180600 34008KT P6SM SKC=